This is the latest recevied weather packets stored in our database for station/object N9CQS-15. If no packets are shown the sender has not sent any weather packets the latest 10 day(s).
| Time | Temp. | Humidity | Pressure | Rain* | Wind** | Luminosity | Snow |
|---|---|---|---|---|---|---|---|
| 1777932541 | 25° C | 45% | 1002.2 hPa | 0 mm | - | - | - |
| 1777931941 | 25° C | 46% | 1002.2 hPa | 0 mm | - | - | - |
| 1777931342 | 25° C | 46% | 1002.1 hPa | 0 mm | - | - | - |
| 1777930742 | 25° C | 46% | 1002.3 hPa | 0 mm | - | - | - |
| 1777930142 | 25° C | 46% | 1002.5 hPa | 0 mm | - | - | - |
| 1777929542 | 24.44° C | 47% | 1002.7 hPa | 0 mm | - | - | - |
| 1777928941 | 24.44° C | 48% | 1002.7 hPa | 0 mm | - | - | - |
| 1777928341 | 24.44° C | 48% | 1002.7 hPa | 0 mm | - | - | - |
| 1777927742 | 24.44° C | 48% | 1003 hPa | 0 mm | - | - | - |
| 1777927142 | 24.44° C | 48% | 1003 hPa | 0 mm | - | - | - |
| 1777926542 | 24.44° C | 48% | 1003.3 hPa | 0 mm | - | - | - |
| 1777925942 | 24.44° C | 48% | 1003.4 hPa | 0 mm | - | - | - |
| 1777925342 | 24.44° C | 49% | 1003.4 hPa | 0 mm | - | - | - |
| 1777924741 | 24.44° C | 53% | 1003.4 hPa | 0 mm | - | - | - |
| 1777924141 | 23.33° C | 54% | 1003.7 hPa | 0 mm | - | - | - |
| 1777923542 | 22.78° C | 55% | 1003.9 hPa | 0 mm | - | - | - |
| 1777922941 | 22.78° C | 55% | 1003.9 hPa | 0 mm | - | - | - |
| 1777922341 | 22.78° C | 55% | 1004.2 hPa | 0 mm | - | - | - |
| 1777921742 | 22.78° C | 55% | 1004.2 hPa | 0 mm | - | - | - |
| 1777921141 | 22.78° C | 57% | 1004.3 hPa | 0 mm | - | - | - |
| 1777920542 | 23.33° C | 57% | 1004.4 hPa | 0 mm | - | - | - |
| 1777919942 | 22.22° C | 57% | 1004.4 hPa | 0 mm | - | - | - |
| 1777919341 | 22.78° C | 56% | 1004.2 hPa | 0 mm | - | - | - |
| 1777918741 | 22.78° C | 56% | 1004.4 hPa | 0 mm | - | - | - |
| 1777918142 | 20° C | 67% | 1004.8 hPa | 0 mm | - | - | - |
* Rain latest hour (hover to see other rain measurements)
** Current wind speed in m/s (hover to see current wind gust speed)